Time;durP1;ratioP1;P1;durP2;ratioP2;P2;SDS_P1;SDS_P2;PMS_P1;PMS_P2;Temp;Humidity;BMP_temperature;BMP_pressure;BME280_temperature;BME280_humidity;BME280_pressure;Samples;Min_cycle;Max_cycle;Signal;HPM_P1;HPM_P2
2023/12/02 00:00:25;;;;;;;116.90;59.20;;;;;;;-3.18;81.11;99174.77;103436;1253;138237;-66
2023/12/02 00:03:12;;;;;;;119.00;60.80;;;;;;;-3.21;80.85;99174.24;103569;1255;97805;-66
2023/12/02 00:05:40;;;;;;;113.30;58.90;;;;;;;-3.23;80.87;99175.09;103408;1253;137933;-66
2023/12/02 00:08:07;;;;;;;120.10;59.50;;;;;;;-3.22;81.05;99181.56;103482;1254;97797;-66
2023/12/02 00:10:34;;;;;;;115.90;58.50;;;;;;;-3.22;81.14;99171.02;102714;1253;1003405;-66
2023/12/02 00:13:00;;;;;;;110.30;55.90;;;;;;;-3.19;81.28;99170.52;103505;1253;107674;-66
2023/12/02 00:15:27;;;;;;;114.90;54.10;;;;;;;-3.18;81.47;99163.04;103584;1253;97912;-66
2023/12/02 00:17:54;;;;;;;106.00;53.80;;;;;;;-3.17;80.93;99162.71;103383;1255;139846;-66
2023/12/02 00:20:21;;;;;;;100.00;51.30;;;;;;;-3.13;81.20;99160.01;102694;1254;1003518;-66
2023/12/02 00:22:48;;;;;;;106.90;54.70;;;;;;;-3.08;81.10;99167.33;103424;1253;138681;-67
2023/12/02 00:25:15;;;;;;;106.50;55.40;;;;;;;-3.00;81.09;99172.83;103561;1252;108340;-69
2023/12/02 00:27:42;;;;;;;111.30;56.40;;;;;;;-2.97;81.10;99175.39;103575;1254;97667;-66
2023/12/02 00:30:11;;;;;;;111.60;57.50;;;;;;;-2.98;80.99;99178.95;103459;1254;137879;-67
2023/12/02 00:32:37;;;;;;;105.00;57.00;;;;;;;-3.01;80.85;99180.14;104220;1250;96360;-65
2023/12/02 00:35:05;;;;;;;108.10;57.40;;;;;;;-3.04;80.78;99178.77;103334;1252;137859;-66
2023/12/02 00:37:32;;;;;;;111.10;58.80;;;;;;;-3.04;80.80;99177.06;103668;1250;107126;-65
2023/12/02 00:39:59;;;;;;;113.50;59.00;;;;;;;-3.04;80.67;99184.73;102040;1254;1003185;-65
2023/12/02 00:42:26;;;;;;;106.70;58.50;;;;;;;-3.08;80.64;99187.40;103351;1253;138818;-64
2023/12/02 00:44:53;;;;;;;114.40;60.00;;;;;;;-3.12;80.37;99193.67;103494;1256;97692;-66
2023/12/02 00:47:20;;;;;;;109.60;57.40;;;;;;;-3.18;80.70;99192.63;103414;1253;138757;-67
2023/12/02 00:49:47;;;;;;;110.80;55.30;;;;;;;-3.21;80.90;99192.78;102764;1253;1002989;-67
2023/12/02 00:52:14;;;;;;;116.30;58.90;;;;;;;-3.24;80.75;99192.06;102818;1251;1003189;-66
2023/12/02 00:54:41;;;;;;;113.40;56.20;;;;;;;-3.25;81.02;99194.27;103467;1253;139708;-66
2023/12/02 00:57:08;;;;;;;106.70;55.70;;;;;;;-3.26;81.29;99188.48;102687;1252;1002879;-66
2023/12/02 00:59:35;;;;;;;109.60;55.30;;;;;;;-3.25;80.87;99182.70;103589;1254;139019;-65
2023/12/02 01:02:02;;;;;;;118.90;59.20;;;;;;;-3.23;80.91;99178.15;103452;1253;107563;-65
2023/12/02 01:04:29;;;;;;;116.10;59.50;;;;;;;-3.22;80.70;99176.29;103346;1253;138994;-67
2023/12/02 01:06:55;;;;;;;121.80;60.30;;;;;;;-3.22;80.74;99179.52;103482;1256;109942;-66
2023/12/02 01:09:22;;;;;;;117.80;59.90;;;;;;;-3.21;80.91;99176.80;103479;1256;97688;-67
2023/12/02 01:11:49;;;;;;;118.40;60.50;;;;;;;-3.20;80.96;99165.58;103381;1253;138132;-67
2023/12/02 01:14:16;;;;;;;121.10;60.80;;;;;;;-3.17;80.90;99161.69;103465;1252;108216;-67
2023/12/02 01:16:43;;;;;;;114.30;59.10;;;;;;;-3.15;80.90;99162.38;102832;1252;1002446;-67
2023/12/02 01:19:10;;;;;;;121.70;58.90;;;;;;;-3.17;80.89;99160.67;103518;1252;107623;-66
2023/12/02 01:21:37;;;;;;;120.50;58.10;;;;;;;-3.19;80.81;99156.58;103484;1256;97668;-65
2023/12/02 01:24:04;;;;;;;114.30;54.40;;;;;;;-3.21;80.91;99150.11;103334;1253;138991;-66
2023/12/02 01:26:31;;;;;;;115.20;55.40;;;;;;;-3.20;81.07;99142.46;104811;1253;106688;-66
2023/12/02 01:28:58;;;;;;;114.20;55.30;;;;;;;-3.15;80.98;99138.06;103635;1253;139876;-65
2023/12/02 01:31:25;;;;;;;113.00;58.40;;;;;;;-3.04;81.01;99139.30;103541;1254;109593;-67
2023/12/02 01:33:51;;;;;;;111.40;57.80;;;;;;;-2.92;81.28;99139.17;102656;1252;1003907;-67
2023/12/02 01:36:18;;;;;;;113.80;59.10;;;;;;;-2.87;80.93;99133.43;103330;1256;138512;-67
2023/12/02 01:38:45;;;;;;;110.00;55.30;;;;;;;-2.84;80.81;99124.60;102648;1252;1002879;-67
2023/12/02 01:41:12;;;;;;;114.80;55.90;;;;;;;-2.82;80.61;99121.03;103303;1252;138907;-66
2023/12/02 01:43:39;;;;;;;113.20;55.20;;;;;;;-2.83;80.62;99125.11;103492;1254;107768;-66
2023/12/02 01:46:07;;;;;;;111.50;56.50;;;;;;;-2.84;81.01;99124.25;103534;1253;97807;-66
2023/12/02 01:48:36;;;;;;;120.60;53.00;;;;;;;-2.81;80.92;99129.20;104479;1253;137862;-67
2023/12/02 01:51:04;;;;;;;103.20;49.70;;;;;;;-2.83;81.07;99139.74;103448;1254;107744;-65
2023/12/02 01:53:32;;;;;;;94.80;45.00;;;;;;;-2.90;80.77;99150.59;103938;1254;137949;-65
2023/12/02 01:55:59;;;;;;;88.20;43.60;;;;;;;-2.94;81.10;99156.86;103457;1253;108388;-66
2023/12/02 01:58:26;;;;;;;89.60;43.40;;;;;;;-2.97;81.33;99164.67;103391;1253;139201;-66
2023/12/02 02:00:53;;;;;;;90.70;41.40;;;;;;;-2.97;81.07;99165.86;103501;1253;112479;-66
2023/12/02 02:03:20;;;;;;;91.10;45.30;;;;;;;-2.95;81.25;99169.61;102004;1252;1003395;-66
2023/12/02 02:05:47;;;;;;;90.40;46.20;;;;;;;-2.95;81.16;99172.00;103883;1251;138078;-65
2023/12/02 02:08:14;;;;;;;91.80;44.60;;;;;;;-2.90;81.35;99168.43;103384;1256;107635;-66
2023/12/02 02:10:41;;;;;;;99.10;47.10;;;;;;;-2.88;81.23;99163.85;103405;1254;138652;-66
2023/12/02 02:13:08;;;;;;;96.50;46.30;;;;;;;-2.87;81.37;99168.44;102740;1253;1003030;-66
2023/12/02 02:15:34;;;;;;;94.40;46.20;;;;;;;-2.87;81.15;99167.12;103499;1257;107670;-65
2023/12/02 02:18:01;;;;;;;98.70;48.10;;;;;;;-2.83;81.52;99169.34;103392;1253;137983;-66
2023/12/02 02:20:29;;;;;;;106.80;48.90;;;;;;;-2.84;81.39;99167.64;103483;1250;107959;-66
2023/12/02 02:22:56;;;;;;;96.10;45.20;;;;;;;-2.88;81.73;99171.52;102579;1250;1003009;-66
2023/12/02 02:25:24;;;;;;;94.20;44.20;;;;;;;-2.91;81.47;99171.50;103409;1253;110602;-66
2023/12/02 02:27:51;;;;;;;93.60;42.30;;;;;;;-2.93;81.65;99162.98;102689;1253;1003343;-65
2023/12/02 02:30:18;;;;;;;90.80;43.40;;;;;;;-2.93;81.69;99162.48;102682;1253;1003687;-67
2023/12/02 02:32:45;;;;;;;95.30;43.60;;;;;;;-2.92;81.74;99165.38;103399;1254;107779;-65
2023/12/02 02:35:12;;;;;;;94.80;45.60;;;;;;;-2.86;81.73;99155.71;103406;1253;138159;-67
2023/12/02 02:37:39;;;;;;;96.70;47.50;;;;;;;-2.77;81.94;99155.06;103639;1254;111825;-68
2023/12/02 02:40:08;;;;;;;98.90;46.80;;;;;;;-2.68;81.69;99161.73;103397;1253;108257;-66
2023/12/02 02:42:35;;;;;;;97.30;47.50;;;;;;;-2.62;81.80;99166.52;102933;1253;1003295;-66
2023/12/02 02:45:03;;;;;;;96.00;46.10;;;;;;;-2.56;81.50;99170.11;103490;1251;107657;-66
2023/12/02 02:47:29;;;;;;;101.50;47.70;;;;;;;-2.52;81.52;99174.22;102724;1256;1003003;-66
2023/12/02 02:49:57;;;;;;;99.10;48.40;;;;;;;-2.45;81.43;99186.33;103494;1250;111143;-65
2023/12/02 02:52:24;;;;;;;102.50;49.40;;;;;;;-2.45;81.34;99191.77;102678;1251;1015499;-69
2023/12/02 02:54:51;;;;;;;106.50;48.90;;;;;;;-2.48;81.13;99195.00;103537;1253;99514;-67
2023/12/02 02:57:22;;;;;;;100.00;47.90;;;;;;;-2.54;81.13;99201.59;102505;1253;1003061;-67
2023/12/02 02:59:49;;;;;;;94.50;44.50;;;;;;;-2.60;81.10;99199.55;103215;1253;139385;-66
2023/12/02 03:02:16;;;;;;;94.80;44.30;;;;;;;-2.63;81.12;99196.64;103424;1256;110375;-66
2023/12/02 03:04:43;;;;;;;94.80;44.20;;;;;;;-2.62;81.62;99189.83;103224;1253;139147;-67
2023/12/02 03:07:10;;;;;;;103.40;46.80;;;;;;;-2.59;81.36;99186.95;103404;1253;97803;-66
2023/12/02 03:09:37;;;;;;;92.90;45.40;;;;;;;-2.56;81.37;99186.77;103377;1255;107341;-67
2023/12/02 03:12:04;;;;;;;97.10;46.70;;;;;;;-2.55;81.38;99186.79;103331;1256;140006;-66
2023/12/02 03:14:31;;;;;;;108.50;48.40;;;;;;;-2.56;81.11;99184.23;103813;1255;110815;-65
2023/12/02 03:16:58;;;;;;;99.80;48.40;;;;;;;-2.58;81.05;99180.83;103380;1255;139576;-67
2023/12/02 03:19:25;;;;;;;97.60;47.70;;;;;;;-2.60;81.27;99179.63;102876;1253;1002506;-65
2023/12/02 03:21:52;;;;;;;105.10;49.20;;;;;;;-2.61;81.44;99176.39;103408;1252;107785;-66
2023/12/02 03:24:19;;;;;;;107.40;49.10;;;;;;;-2.64;81.44;99164.14;102643;1253;1003756;-67
2023/12/02 03:26:46;;;;;;;104.90;48.10;;;;;;;-2.67;81.54;99160.21;103395;1255;111180;-66
2023/12/02 03:29:13;;;;;;;95.20;44.90;;;;;;;-2.71;81.50;99150.99;103286;1253;138776;-66
2023/12/02 03:31:41;;;;;;;94.50;43.00;;;;;;;-2.72;81.65;99143.84;103559;1253;97839;-66
2023/12/02 03:34:08;;;;;;;94.80;42.00;;;;;;;-2.76;81.87;99133.63;103510;1253;108370;-66
2023/12/02 03:36:36;;;;;;;87.50;41.10;;;;;;;-2.78;81.77;99123.24;103307;1253;138941;-66
2023/12/02 03:39:03;;;;;;;99.00;44.60;;;;;;;-2.74;81.81;99129.89;104629;1253;111806;-66
2023/12/02 03:41:30;;;;;;;96.50;44.60;;;;;;;-2.72;81.62;99133.64;103531;1251;142144;-65
2023/12/02 03:43:57;;;;;;;89.80;43.60;;;;;;;-2.72;81.34;99137.05;103524;1253;97854;-66
2023/12/02 03:46:26;;;;;;;101.70;45.00;;;;;;;-2.70;81.83;99128.20;103366;1253;137997;-66
2023/12/02 03:48:53;;;;;;;106.60;45.80;;;;;;;-2.69;81.84;99124.66;103479;1253;96396;-66
2023/12/02 03:51:20;;;;;;;101.90;45.50;;;;;;;-2.70;81.95;99128.55;103560;1253;111353;-65
2023/12/02 03:53:47;;;;;;;100.10;45.60;;;;;;;-2.74;81.86;99131.77;102672;1255;1003223;-66
2023/12/02 03:56:14;;;;;;;101.00;43.00;;;;;;;-2.79;81.74;99128.52;102744;1253;1003323;-65
2023/12/02 03:58:41;;;;;;;92.80;42.30;;;;;;;-2.80;81.92;99138.73;101708;1254;1003272;-66
2023/12/02 04:01:09;;;;;;;96.00;41.40;;;;;;;-2.83;81.80;99140.25;103524;1256;97985;-68
2023/12/02 04:03:36;;;;;;;92.80;40.30;;;;;;;-2.83;81.78;99143.31;104851;1250;110495;-66
2023/12/02 04:06:03;;;;;;;87.50;40.90;;;;;;;-2.84;82.06;99143.31;104673;1252;139117;-66
2023/12/02 04:08:30;;;;;;;88.10;41.10;;;;;;;-2.82;82.29;99142.81;102798;1253;1003177;-65
2023/12/02 04:10:57;;;;;;;92.40;43.30;;;;;;;-2.75;82.12;99145.37;103363;1253;138474;-66
2023/12/02 04:13:25;;;;;;;94.20;42.20;;;;;;;-2.67;82.33;99146.27;102739;1253;1003093;-65
2023/12/02 04:15:53;;;;;;;92.40;42.40;;;;;;;-2.57;82.12;99150.54;103584;1253;111454;-66
2023/12/02 04:18:20;;;;;;;87.50;41.50;;;;;;;-2.50;81.97;99156.70;103650;1253;138925;-67
2023/12/02 04:20:47;;;;;;;80.20;38.40;;;;;;;-2.48;81.76;99155.69;103525;1253;97784;-66
2023/12/02 04:23:14;;;;;;;78.40;37.70;;;;;;;-2.52;81.89;99147.48;103369;1251;138441;-66
2023/12/02 04:25:41;;;;;;;75.50;35.90;;;;;;;-2.58;81.70;99146.61;103595;1254;97798;-66
2023/12/02 04:28:08;;;;;;;76.80;34.80;;;;;;;-2.71;81.63;99140.30;103486;1253;111842;-65
2023/12/02 04:30:35;;;;;;;68.80;32.00;;;;;;;-2.74;81.60;99150.99;103353;1253;138358;-67
2023/12/02 04:33:03;;;;;;;65.70;29.20;;;;;;;-2.75;81.98;99155.07;103490;1253;97807;-65
2023/12/02 04:35:31;;;;;;;59.80;28.00;;;;;;;-2.77;81.95;99155.06;102815;1253;1003115;-66
2023/12/02 04:37:58;;;;;;;66.00;31.30;;;;;;;-2.74;82.19;99157.96;102642;1256;1003003;-66
2023/12/02 04:40:25;;;;;;;65.40;31.60;;;;;;;-2.68;82.09;99157.83;102610;1254;1003705;-67
2023/12/02 04:42:51;;;;;;;69.60;33.40;;;;;;;-2.60;82.31;99161.08;103164;1253;1002450;-66
2023/12/02 04:45:18;;;;;;;71.30;33.30;;;;;;;-2.53;82.34;99162.46;103426;1253;97822;-67
2023/12/02 04:47:45;;;;;;;74.50;33.20;;;;;;;-2.46;82.45;99166.41;103235;1255;137994;-67
2023/12/02 04:50:13;;;;;;;79.10;34.90;;;;;;;-2.44;81.91;99158.75;103544;1255;97792;-66
2023/12/02 04:52:39;;;;;;;68.20;34.10;;;;;;;-2.44;81.64;99153.98;103402;1256;137930;-67
2023/12/02 04:55:10;;;;;;;76.60;35.90;;;;;;;-2.43;81.52;99145.30;102610;1250;1002518;-67
2023/12/02 04:57:37;;;;;;;76.80;36.50;;;;;;;-2.43;81.66;99152.11;103375;1254;97682;-67
2023/12/02 05:00:07;;;;;;;80.00;36.90;;;;;;;-2.45;81.64;99149.56;103253;1254;137581;-66
2023/12/02 05:02:38;;;;;;;79.10;36.40;;;;;;;-2.47;81.73;99144.45;103444;1254;97810;-65
2023/12/02 05:05:05;;;;;;;74.10;34.00;;;;;;;-2.46;81.57;99141.90;103411;1253;138738;-67
2023/12/02 05:07:32;;;;;;;74.70;35.10;;;;;;;-2.44;81.78;99135.94;103504;1256;107565;-66
2023/12/02 05:09:59;;;;;;;78.60;37.20;;;;;;;-2.40;81.95;99132.88;103443;1254;98321;-67
2023/12/02 05:12:26;;;;;;;79.00;36.70;;;;;;;-2.34;82.03;99135.10;103386;1256;137754;-66
2023/12/02 05:14:53;;;;;;;86.30;38.80;;;;;;;-2.31;81.88;99135.98;103515;1253;97909;-65
2023/12/02 05:17:19;;;;;;;85.30;38.50;;;;;;;-2.30;81.58;99132.56;102693;1251;1002917;-66
2023/12/02 05:19:47;;;;;;;78.70;38.40;;;;;;;-2.32;81.32;99130.19;103446;1252;108055;-66
2023/12/02 05:22:13;;;;;;;84.70;37.60;;;;;;;-2.34;81.48;99133.05;103480;1253;97813;-66
2023/12/02 05:24:40;;;;;;;85.90;39.50;;;;;;;-2.35;81.65;99137.30;102610;1253;1002766;-66
2023/12/02 05:27:08;;;;;;;88.50;38.20;;;;;;;-2.38;81.37;99140.20;101990;1256;1015639;-66
2023/12/02 05:29:34;;;;;;;84.80;39.40;;;;;;;-2.41;81.28;99142.58;103692;1253;138217;-66
2023/12/02 05:32:01;;;;;;;85.30;36.20;;;;;;;-2.47;81.40;99143.09;103403;1253;108121;-66
2023/12/02 05:34:28;;;;;;;86.60;37.00;;;;;;;-2.51;81.48;99135.58;103490;1253;138727;-66
2023/12/02 05:36:55;;;;;;;80.10;35.40;;;;;;;-2.53;81.58;99122.64;102691;1252;1003710;-66
2023/12/02 05:39:22;;;;;;;74.90;34.30;;;;;;;-2.57;81.63;99122.45;103488;1253;98458;-65
2023/12/02 05:41:49;;;;;;;74.60;35.00;;;;;;;-2.58;81.54;99131.98;103350;1254;138781;-66
2023/12/02 05:44:16;;;;;;;73.20;34.20;;;;;;;-2.60;81.65;99129.25;103489;1253;108235;-65
2023/12/02 05:46:43;;;;;;;75.30;35.50;;;;;;;-2.59;81.73;99123.30;103353;1253;138007;-66
2023/12/02 05:49:10;;;;;;;74.00;35.10;;;;;;;-2.53;81.68;99124.16;102756;1255;1003401;-66
2023/12/02 05:51:41;;;;;;;73.40;34.90;;;;;;;-2.52;81.87;99124.86;103518;1256;97794;-66
2023/12/02 06:24:32;;;;;;;70.30;31.50;;;;;;;-2.78;82.54;99130.40;103188;1253;1003753;-68
2023/12/02 06:27:00;;;;;;;70.10;32.10;;;;;;;-2.76;82.31;99132.44;103599;1255;110562;-66
2023/12/02 06:29:27;;;;;;;73.30;32.10;;;;;;;-2.73;82.20;99137.89;103093;1258;137893;-66
2023/12/02 06:31:54;;;;;;;69.40;31.10;;;;;;;-2.69;82.11;99135.87;103279;1253;110335;-67
2023/12/02 06:34:21;;;;;;;70.70;31.60;;;;;;;-2.62;82.25;99129.60;103192;1253;107714;-66
2023/12/02 06:36:48;;;;;;;72.10;32.40;;;;;;;-2.59;82.32;99123.30;101670;1257;1003215;-66
2023/12/02 06:39:15;;;;;;;70.20;31.00;;;;;;;-2.56;82.44;99122.96;102631;1254;1002565;-67
2023/12/02 06:41:42;;;;;;;62.90;28.60;;;;;;;-2.51;82.41;99130.48;103195;1253;138706;-67
2023/12/02 06:44:09;;;;;;;59.30;28.30;;;;;;;-2.48;82.21;99128.11;103284;1256;110478;-67
2023/12/02 06:46:36;;;;;;;61.40;28.80;;;;;;;-2.44;82.03;99139.52;103021;1253;138763;-67
2023/12/02 06:49:03;;;;;;;64.30;31.90;;;;;;;-2.39;81.92;99149.73;103439;1253;98373;-66
2023/12/02 06:51:30;;;;;;;69.10;30.20;;;;;;;-2.33;81.97;99148.73;103423;1254;107888;-66
2023/12/02 06:53:57;;;;;;;68.00;30.80;;;;;;;-2.25;81.79;99149.59;103159;1256;139132;-67
2023/12/02 06:56:26;;;;;;;66.70;31.90;;;;;;;-2.21;81.81;99152.15;103374;1254;110507;-67
2023/12/02 06:58:54;;;;;;;67.20;33.30;;;;;;;-2.20;81.68;99151.13;103225;1256;138183;-67
2023/12/02 07:01:29;;;;;;;72.10;33.90;;;;;;;-2.23;81.22;99153.00;103298;1253;98344;-67
2023/12/02 07:03:57;;;;;;;73.90;34.40;;;;;;;-2.27;81.10;99164.23;102790;1250;1003648;-67
2023/12/02 07:06:25;;;;;;;79.10;36.00;;;;;;;-2.32;81.47;99165.25;103279;1252;138029;-67
2023/12/02 07:08:53;;;;;;;76.80;35.60;;;;;;;-2.34;81.58;99166.23;103396;1254;112917;-67
2023/12/02 07:11:20;;;;;;;77.10;33.80;;;;;;;-2.42;81.47;99163.17;103298;1253;137947;-67
2023/12/02 07:13:47;;;;;;;71.40;32.20;;;;;;;-2.45;81.72;99166.57;103454;1256;98354;-67
2023/12/02 07:16:14;;;;;;;70.80;31.40;;;;;;;-2.46;81.67;99170.15;102615;1253;1002672;-67
2023/12/02 07:18:41;;;;;;;68.60;32.10;;;;;;;-2.44;81.61;99174.75;102470;1253;1003503;-66
2023/12/02 07:21:10;;;;;;;72.00;33.40;;;;;;;-2.38;81.90;99176.29;103361;1256;111339;-67
2023/12/02 07:23:37;;;;;;;72.70;34.30;;;;;;;-2.33;81.83;99174.77;102555;1256;1003320;-67
2023/12/02 07:26:04;;;;;;;74.10;33.60;;;;;;;-2.29;81.68;99165.09;103317;1254;98424;-67
2023/12/02 07:28:31;;;;;;;75.70;34.50;;;;;;;-2.24;82.11;99165.09;103084;1253;137941;-69
2023/12/02 07:30:58;;;;;;;70.30;31.90;;;;;;;-2.20;81.75;99166.79;103401;1254;97800;-67
2023/12/02 07:33:25;;;;;;;65.30;31.80;;;;;;;-2.20;81.85;99165.94;103309;1253;110647;-67
2023/12/02 07:35:52;;;;;;;66.30;31.80;;;;;;;-2.22;81.59;99167.64;102641;1253;1003183;-67
2023/12/02 07:38:19;;;;;;;61.40;31.30;;;;;;;-2.23;81.82;99169.17;102693;1254;1002944;-66
2023/12/02 07:40:46;;;;;;;65.50;29.50;;;;;;;-2.27;81.74;99171.73;102522;1253;1002741;-66
2023/12/02 07:43:14;;;;;;;55.00;26.80;;;;;;;-2.26;82.08;99165.09;103454;1253;97819;-66
2023/12/02 07:45:41;;;;;;;57.00;26.70;;;;;;;-2.24;81.95;99155.89;103428;1252;110604;-66
2023/12/02 07:48:10;;;;;;;53.60;25.60;;;;;;;-2.21;82.31;99156.23;102650;1251;1003228;-67
2023/12/02 07:50:37;;;;;;;54.20;26.50;;;;;;;-2.12;82.25;99156.27;104399;1253;97972;-67
2023/12/02 07:53:04;;;;;;;56.30;27.60;;;;;;;-2.02;82.32;99154.55;102584;1254;1003052;-67
2023/12/02 07:55:31;;;;;;;59.90;27.40;;;;;;;-1.95;82.20;99153.89;103451;1254;98781;-67
2023/12/02 07:57:58;;;;;;;68.50;30.90;;;;;;;-1.86;82.52;99148.09;103441;1256;111329;-67
2023/12/02 08:00:26;;;;;;;58.70;28.90;;;;;;;-1.75;82.98;99137.70;103253;1254;138993;-67
2023/12/02 08:02:53;;;;;;;70.50;31.00;;;;;;;-1.63;82.97;99139.91;103347;1253;97817;-67
2023/12/02 08:05:20;;;;;;;74.40;34.60;;;;;;;-1.59;82.46;99144.70;103257;1254;138573;-67
2023/12/02 08:07:51;;;;;;;83.50;36.90;;;;;;;-1.57;82.22;99142.47;101897;1252;1003379;-67
2023/12/02 08:10:18;;;;;;;76.40;33.80;;;;;;;-1.58;82.16;99142.47;103415;1256;110597;-68
2023/12/02 08:12:45;;;;;;;84.20;35.90;;;;;;;-1.55;81.96;99137.00;103258;1253;138675;-66
2023/12/02 08:15:12;;;;;;;78.40;34.30;;;;;;;-1.50;81.86;99135.80;103465;1253;97768;-69
2023/12/02 08:17:39;;;;;;;79.30;34.60;;;;;;;-1.47;81.82;99145.16;103342;1253;140904;-68
2023/12/02 08:20:09;;;;;;;76.50;35.20;;;;;;;-1.42;81.58;99151.98;103368;1256;97804;-67
2023/12/02 08:22:36;;;;;;;80.00;36.80;;;;;;;-1.41;81.53;99160.17;104326;1253;137956;-68
2023/12/02 08:25:03;;;;;;;78.10;36.00;;;;;;;-1.39;81.44;99161.20;103378;1254;107077;-67
2023/12/02 08:27:29;;;;;;;82.80;37.60;;;;;;;-1.35;81.27;99164.25;103440;1251;98322;-67
2023/12/02 08:29:56;;;;;;;80.30;37.30;;;;;;;-1.33;81.33;99169.88;103284;1253;137820;-67
2023/12/02 08:32:23;;;;;;;84.60;36.60;;;;;;;-1.34;81.16;99173.80;103387;1252;98373;-66
2023/12/02 08:34:50;;;;;;;76.10;35.50;;;;;;;-1.39;80.98;99177.56;103297;1253;138350;-66
2023/12/02 08:37:17;;;;;;;81.10;35.20;;;;;;;-1.43;81.09;99178.08;102693;1253;1003648;-66
2023/12/02 08:39:44;;;;;;;78.00;35.00;;;;;;;-1.49;81.41;99176.20;103387;1253;98354;-67
2023/12/02 08:42:10;;;;;;;74.50;33.40;;;;;;;-1.53;81.47;99174.33;102534;1253;1002848;-66
2023/12/02 08:44:39;;;;;;;66.20;31.40;;;;;;;-1.55;81.95;99177.91;102631;1254;1003155;-69
2023/12/02 08:47:07;;;;;;;74.70;36.70;;;;;;;-1.52;82.02;99183.88;103323;1254;140503;-67
2023/12/02 08:49:34;;;;;;;74.60;34.20;;;;;;;-1.50;81.85;99191.36;103366;1257;106911;-68
2023/12/02 08:52:03;;;;;;;77.00;34.30;;;;;;;-1.47;81.82;99200.39;102661;1256;1003040;-66
2023/12/02 08:54:30;;;;;;;76.60;33.90;;;;;;;-1.38;82.31;99208.92;103180;1256;138225;-67
2023/12/02 08:56:57;;;;;;;74.20;34.60;;;;;;;-1.31;81.88;99214.54;103411;1256;98109;-66
2023/12/02 08:59:24;;;;;;;77.60;35.80;;;;;;;-1.26;81.84;99221.70;103353;1254;137758;-67
2023/12/02 09:01:50;;;;;;;76.20;35.50;;;;;;;-1.21;82.00;99220.34;102646;1254;1003509;-66
2023/12/02 09:04:17;;;;;;;78.30;35.60;;;;;;;-1.17;81.93;99220.33;103484;1253;97790;-66
2023/12/02 09:06:45;;;;;;;83.70;37.60;;;;;;;-1.12;81.81;99216.22;103371;1256;137780;-66
2023/12/02 09:09:12;;;;;;;85.70;38.30;;;;;;;-1.09;81.54;99218.59;103495;1253;97784;-66
2023/12/02 09:11:41;;;;;;;85.40;37.30;;;;;;;-1.10;81.27;99218.95;103367;1253;138055;-68
2023/12/02 09:14:08;;;;;;;80.50;37.20;;;;;;;-1.09;81.30;99213.13;103389;1253;107779;-68
2023/12/02 09:16:35;;;;;;;77.70;34.60;;;;;;;-1.09;81.25;99216.55;102515;1253;1002465;-67
2023/12/02 09:19:04;;;;;;;74.50;34.40;;;;;;;-1.06;81.25;99212.14;102660;1254;1002474;-67
2023/12/02 09:21:45;;;;;;;71.90;32.90;;;;;;;-1.01;81.30;99206.14;103279;1256;97781;-66
2023/12/02 09:24:37;;;;;;;76.70;36.00;;;;;;;-0.91;81.56;99205.09;102604;1253;1003658;-64
2023/12/02 09:27:06;;;;;;;80.60;36.70;;;;;;;-0.80;81.82;99199.93;103490;1254;109191;-64
2023/12/02 09:29:36;;;;;;;72.90;35.50;;;;;;;-0.71;82.00;99197.69;103656;1253;137996;-64
2023/12/02 09:32:08;;;;;;;75.50;35.30;;;;;;;-0.62;81.77;99204.31;103623;1253;107910;-69
2023/12/02 09:34:59;;;;;;;74.20;34.40;;;;;;;-0.56;81.52;99199.50;103842;1253;139906;-66
2023/12/02 09:40:52;;;;;;;79.30;34.40;;;;;;;-0.43;81.35;99194.33;99270;1296;1003468;-67
2023/12/02 09:43:32;;;;;;;66.70;32.10;;;;;;;-0.47;80.72;99181.20;101785;1266;1015463;-67
2023/12/02 09:46:27;;;;;;;80.10;35.70;;;;;;;-0.47;80.57;99173.02;101796;1269;1003032;-67
2023/12/02 09:49:17;;;;;;;73.40;34.10;;;;;;;-0.45;80.58;99174.87;102785;1262;94424;-67
2023/12/02 09:52:04;;;;;;;74.10;34.90;;;;;;;-0.41;80.49;99174.84;102902;1261;107171;-68
2023/12/02 09:54:46;;;;;;;78.90;36.50;;;;;;;-0.35;80.30;99180.29;103204;1263;169343;-66
2023/12/02 09:57:17;;;;;;;77.60;37.40;;;;;;;-0.37;79.86;99165.59;103153;1260;94288;-66
2023/12/02 09:59:58;;;;;;;79.40;37.40;;;;;;;-0.40;79.83;99155.20;103008;1259;137810;-66
2023/12/02 10:02:38;;;;;;;82.10;35.70;;;;;;;-0.42;79.68;99166.98;103273;1258;94427;-67
2023/12/02 10:05:12;;;;;;;75.00;37.90;;;;;;;-0.42;79.74;99180.83;102998;1256;137641;-66
2023/12/02 10:07:52;;;;;;;74.20;35.00;;;;;;;-0.47;79.68;99190.77;104093;1257;107596;-66
2023/12/02 10:10:26;;;;;;;82.60;38.40;;;;;;;-0.46;79.89;99190.93;103173;1257;95118;-67
2023/12/02 10:13:10;;;;;;;78.30;36.80;;;;;;;-0.45;79.76;99183.74;103362;1259;107667;-67
2023/12/02 10:15:40;;;;;;;78.40;35.30;;;;;;;-0.48;79.93;99187.53;102464;1260;1003175;-66
2023/12/02 10:18:14;;;;;;;73.20;32.90;;;;;;;-0.44;80.03;99195.86;103012;1262;138089;-66
2023/12/02 10:20:43;;;;;;;67.00;32.10;;;;;;;-0.38;80.13;99178.42;102379;1255;1003604;-67
2023/12/02 10:23:18;;;;;;;69.00;33.90;;;;;;;-0.30;80.26;99166.94;102272;1262;1015728;-67
2023/12/02 10:25:55;;;;;;;74.30;35.50;;;;;;;-0.21;80.00;99147.23;102994;1259;1003616;-68
2023/12/02 10:28:30;;;;;;;75.20;36.40;;;;;;;-0.14;79.81;99151.30;102644;1257;1002984;-66
2023/12/02 10:31:05;;;;;;;77.90;36.70;;;;;;;-0.10;79.76;99155.54;103125;1260;108636;-68
2023/12/02 10:33:41;;;;;;;75.70;35.70;;;;;;;-0.07;79.29;99150.73;103092;1257;105961;-67
2023/12/02 10:36:12;;;;;;;71.60;36.20;;;;;;;-0.08;78.99;99147.15;103096;1260;137185;-65
2023/12/02 10:38:54;;;;;;;73.30;35.50;;;;;;;-0.11;78.78;99133.85;102805;1257;1002624;-67
2023/12/02 10:41:37;;;;;;;;;;;;;;;-0.15;78.68;99133.71;103529;1257;137545;-66
2023/12/02 10:44:07;;;;;;;76.90;37.20;;;;;;;-0.21;78.87;99134.92;103317;1257;107955;-66
2023/12/02 10:46:35;;;;;;;81.90;39.40;;;;;;;-0.25;78.76;99132.73;102951;1263;137956;-68
2023/12/02 10:49:03;;;;;;;85.50;41.30;;;;;;;-0.31;78.75;99138.42;102438;1263;1002744;-67
2023/12/02 10:51:32;;;;;;;92.70;38.90;;;;;;;-0.36;78.75;99144.25;102455;1262;1002856;-67
2023/12/02 10:54:04;;;;;;;80.30;38.50;;;;;;;-0.41;78.81;99143.77;102235;1258;1004065;-66
2023/12/02 10:56:35;;;;;;;77.80;37.90;;;;;;;-0.45;78.90;99139.02;103054;1260;108335;-66
2023/12/02 10:59:03;;;;;;;73.20;35.70;;;;;;;-0.46;79.17;99135.09;102869;1261;138198;-67
2023/12/02 11:01:37;;;;;;;79.00;37.70;;;;;;;-0.40;79.19;99129.06;103095;1260;95770;-66
2023/12/02 11:04:14;;;;;;;77.30;39.00;;;;;;;-0.31;79.27;99121.68;102403;1258;1003598;-66
2023/12/02 11:06:47;;;;;;;71.80;38.10;;;;;;;-0.21;79.17;99145.01;102937;1261;137661;-67
2023/12/02 11:09:18;;;;;;;73.30;38.70;;;;;;;-0.17;79.06;99166.53;103072;1258;108306;-67
2023/12/02 11:11:54;;;;;;;74.70;38.90;;;;;;;-0.13;78.89;99175.04;102954;1269;137368;-68
2023/12/02 11:14:24;;;;;;;73.60;38.50;;;;;;;-0.10;78.70;99189.54;103118;1260;95056;-67
2023/12/02 11:17:07;;;;;;;76.10;38.90;;;;;;;-0.09;78.59;99194.65;102997;1262;138166;-67
2023/12/02 11:19:51;;;;;;;69.70;37.40;;;;;;;-0.09;78.50;99192.27;102362;1259;1015606;-67
2023/12/02 11:22:35;;;;;;;84.00;40.70;;;;;;;-0.12;78.42;99172.13;103137;1258;107072;-67
2023/12/02 11:25:16;;;;;;;79.70;40.70;;;;;;;-0.18;78.24;99172.16;102404;1261;1003667;-68
2023/12/02 11:27:53;;;;;;;81.90;40.40;;;;;;;-0.28;78.40;99171.02;103197;1258;95083;-67
2023/12/02 11:30:28;;;;;;;;;;;;;;;-0.40;78.55;99179.27;103067;1260;139106;-67
2023/12/02 11:33:10;;;;;;;74.90;37.10;;;;;;;-0.48;78.61;99174.38;103175;1257;95008;-67
2023/12/02 11:35:42;;;;;;;78.20;37.20;;;;;;;-0.53;78.77;99165.52;102269;1258;1003664;-67
2023/12/02 11:38:17;;;;;;;75.30;38.40;;;;;;;-0.56;78.99;99147.08;102367;1260;1002921;-68
2023/12/02 11:41:00;;;;;;;79.80;38.90;;;;;;;-0.52;79.25;99133.27;102915;1260;137913;-67